Alne, United Kingdom
Current Conditions -  °F | °C
As of 9:50 AM on Monday 22 Dec 2014 (Local Time) from EGXU Reporting Station
Overcast Overcast  
Wind Chill: 55°   Ceiling: 1800
Heat Index: 55°   Visibility: 6mi
Dew Point: 48°   Wind: 22mph
Humidity: 77%   Direction: 250°WSW
Pressure: 29.77"   Gusts: 33mph
Location:  54.08°N, 1.1°W
Report Text: EGXU 220950Z AUTO 25019G29KT 9999 // OVC018/// 13/09 Q1008
Loading
Personal Weather Stations






























Interactive Weather Map New forecast layout! Learn more

10-Day Weather Forecast

Advertisements
Track Severe Weather on mobile